createdAt,value
2022-12-03T00:01:20.442Z,4.09
2022-12-03T00:03:47.472Z,4.01
2022-12-03T00:06:14.603Z,4.05
2022-12-03T00:08:41.418Z,4.21
2022-12-03T00:11:08.356Z,4.26
2022-12-03T00:13:37.401Z,4.15
2022-12-03T00:16:04.877Z,4.04
2022-12-03T00:18:31.954Z,3.88
2022-12-03T00:20:58.876Z,3.59
2022-12-03T00:23:28.113Z,3.20
2022-12-03T00:25:55.041Z,3.44
2022-12-03T00:28:21.961Z,3.55
2022-12-03T00:30:54.213Z,3.48
2022-12-03T00:33:24.088Z,3.82
2022-12-03T00:35:55.826Z,3.72
2022-12-03T00:38:22.852Z,3.43
2022-12-03T00:40:51.981Z,3.44
2022-12-03T00:43:21.641Z,3.76
2022-12-03T00:45:48.552Z,3.82
2022-12-03T00:48:15.496Z,3.67
2022-12-03T00:50:42.482Z,3.94
2022-12-03T00:53:12.026Z,3.82
2022-12-03T00:55:41.055Z,3.58
2022-12-03T00:58:10.946Z,3.82
2022-12-03T01:00:40.262Z,4.02
2022-12-03T01:03:07.208Z,3.61
2022-12-03T01:05:36.667Z,3.42
2022-12-03T01:08:03.796Z,3.30
2022-12-03T01:10:33.356Z,3.63
2022-12-03T01:13:02.928Z,3.42
2022-12-03T01:15:31.936Z,3.28
2022-12-03T01:18:01.037Z,3.41
2022-12-03T01:20:30.224Z,3.51
2022-12-03T01:22:57.199Z,3.31
2022-12-03T01:25:24.249Z,3.15
2022-12-03T01:27:51.216Z,3.50
2022-12-03T01:32:47.637Z,3.44
2022-12-03T01:35:17.072Z,3.68
2022-12-03T01:37:46.116Z,3.67
2022-12-03T01:40:21.105Z,3.63
2022-12-03T01:42:51.168Z,3.72
2022-12-03T01:45:23.984Z,3.81
2022-12-03T01:47:55.998Z,3.69
2022-12-03T01:50:30.933Z,3.27
2022-12-03T01:53:02.021Z,3.41
2022-12-03T01:55:29.498Z,3.31
2022-12-03T01:58:00.180Z,3.32
2022-12-03T02:00:30.732Z,3.49
2022-12-03T02:03:07.946Z,3.74
2022-12-03T02:05:34.983Z,3.71
2022-12-03T02:08:02.217Z,3.66
2022-12-03T02:10:35.094Z,3.84
2022-12-03T02:13:08.890Z,3.69
2022-12-03T02:15:39.462Z,3.33
2022-12-03T02:18:08.442Z,3.47
2022-12-03T02:20:49.214Z,3.62
2022-12-03T02:23:37.656Z,3.70
2022-12-03T02:26:04.761Z,3.83
2022-12-03T02:28:34.367Z,3.68
2022-12-03T02:31:05.430Z,3.65
2022-12-03T02:33:33.211Z,3.91
2022-12-03T02:36:06.304Z,3.89
2022-12-03T02:38:35.831Z,3.75
2022-12-03T02:41:33.525Z,3.81
2022-12-03T02:44:00.809Z,3.58
2022-12-03T02:46:30.271Z,3.75
2022-12-03T02:48:57.810Z,3.84
2022-12-03T02:51:27.214Z,3.85
2022-12-03T02:53:56.339Z,3.55
2022-12-03T02:56:27.787Z,3.55
2022-12-03T02:58:58.828Z,3.64
2022-12-03T03:01:26.222Z,3.69
2022-12-03T03:03:58.509Z,3.40
2022-12-03T03:06:25.998Z,3.44
2022-12-03T03:08:55.393Z,3.46
2022-12-03T03:11:22.397Z,3.51
2022-12-03T03:13:49.447Z,3.37
2022-12-03T03:16:16.633Z,3.49
2022-12-03T03:18:43.672Z,3.66
2022-12-03T03:21:11.788Z,3.62
2022-12-03T03:23:43.328Z,3.56
2022-12-03T03:26:16.706Z,3.65
2022-12-03T03:28:48.248Z,3.22
2022-12-03T03:31:23.179Z,2.84
2022-12-03T03:33:51.147Z,3.11
2022-12-03T03:36:19.951Z,3.19
2022-12-03T03:38:51.794Z,3.21
2022-12-03T03:41:20.945Z,3.42
2022-12-03T03:43:50.145Z,3.43
2022-12-03T03:46:20.518Z,3.24
2022-12-03T03:48:48.756Z,3.31
2022-12-03T03:51:19.473Z,3.35
2022-12-03T03:53:48.616Z,3.10
2022-12-03T03:56:17.991Z,3.21
2022-12-03T03:58:45.003Z,3.13
2022-12-03T04:01:14.457Z,3.28
2022-12-03T04:03:41.737Z,3.44
2022-12-03T04:06:09.197Z,3.41
2022-12-03T04:08:38.707Z,3.45
2022-12-03T04:11:24.422Z,3.75
2022-12-03T04:13:54.256Z,3.60
2022-12-03T04:16:21.269Z,3.50
2022-12-03T04:18:55.515Z,3.63
2022-12-03T04:21:42.873Z,3.72
2022-12-03T04:24:12.540Z,3.45
2022-12-03T04:26:58.020Z,3.38
2022-12-03T04:29:24.969Z,3.46
2022-12-03T04:32:10.824Z,3.43
2022-12-03T04:34:58.622Z,3.42
2022-12-03T04:37:25.968Z,3.66
2022-12-03T04:39:53.111Z,3.50
2022-12-03T04:42:22.257Z,3.33
2022-12-03T04:44:50.465Z,2.99
2022-12-03T04:47:22.369Z,2.96
2022-12-03T04:49:53.981Z,3.16
2022-12-03T04:52:23.759Z,3.32
2022-12-03T04:54:56.054Z,3.25
2022-12-03T04:57:27.906Z,3.39
2022-12-03T04:59:57.820Z,3.47
2022-12-03T05:02:24.933Z,3.15
2022-12-03T05:04:52.246Z,3.20
2022-12-03T05:07:24.497Z,3.23
2022-12-03T05:09:51.436Z,3.26
2022-12-03T05:12:18.320Z,3.39
2022-12-03T05:14:47.883Z,3.27
2022-12-03T05:17:17.413Z,3.21
2022-12-03T05:20:03.212Z,2.99
2022-12-03T05:22:30.090Z,2.85
2022-12-03T05:24:57.251Z,2.88
2022-12-03T05:27:24.482Z,2.90
2022-12-03T05:29:54.268Z,2.62
2022-12-03T05:32:23.564Z,2.66
2022-12-03T05:34:53.343Z,3.00
2022-12-03T05:37:22.421Z,3.09
2022-12-03T05:39:49.504Z,3.29
2022-12-03T05:42:34.764Z,2.79
2022-12-03T05:45:04.285Z,3.03
2022-12-03T05:47:33.636Z,3.20
2022-12-03T05:50:03.308Z,2.93
2022-12-03T05:52:30.331Z,3.09
2022-12-03T05:54:57.346Z,3.06
2022-12-03T05:57:28.778Z,3.12
2022-12-03T05:59:58.931Z,2.95
2022-12-03T06:02:28.246Z,2.85
2022-12-03T06:05:00.153Z,2.96
2022-12-03T06:07:29.223Z,3.11
2022-12-03T06:09:56.241Z,3.27
2022-12-03T06:12:23.310Z,3.37
2022-12-03T06:14:50.529Z,3.67
2022-12-03T06:17:17.698Z,3.53
2022-12-03T06:19:47.300Z,3.73
2022-12-03T06:22:14.462Z,3.77
2022-12-03T06:24:44.525Z,3.43
2022-12-03T06:27:11.856Z,3.39
2022-12-03T06:29:38.923Z,3.41
2022-12-03T06:32:06.202Z,3.41
2022-12-03T06:34:33.352Z,3.55
2022-12-03T06:37:02.776Z,3.64
2022-12-03T06:39:29.893Z,3.29
2022-12-03T06:41:59.274Z,3.39
2022-12-03T06:44:26.313Z,3.41
2022-12-03T06:46:53.437Z,3.43
2022-12-03T06:49:21.197Z,3.54
2022-12-03T06:51:48.205Z,3.58
2022-12-03T06:54:15.169Z,3.69
2022-12-03T06:56:45.396Z,3.48
2022-12-03T06:59:12.837Z,3.52
2022-12-03T07:01:44.587Z,3.62
2022-12-03T07:04:11.590Z,3.69
2022-12-03T07:06:38.610Z,3.71
2022-12-03T07:09:07.644Z,3.64
2022-12-03T07:11:40.427Z,3.36
2022-12-03T07:14:11.185Z,3.38
2022-12-03T07:16:43.653Z,3.47
2022-12-03T07:19:13.721Z,3.45
2022-12-03T07:21:40.750Z,3.46
2022-12-03T07:24:07.894Z,3.54
2022-12-03T07:26:40.451Z,3.67
2022-12-03T07:29:07.726Z,3.71
2022-12-03T07:31:34.889Z,3.45
2022-12-03T07:34:06.392Z,3.33
2022-12-03T07:36:35.571Z,3.54
2022-12-03T07:39:02.597Z,3.62
2022-12-03T07:41:29.608Z,3.59
2022-12-03T07:43:59.157Z,3.83
2022-12-03T07:46:28.408Z,3.76
2022-12-03T07:48:57.715Z,3.70
2022-12-03T07:51:31.967Z,3.78
2022-12-03T07:53:59.352Z,3.44
2022-12-03T07:56:26.434Z,3.74
2022-12-03T07:58:55.524Z,3.93
2022-12-03T08:01:22.540Z,4.06
2022-12-03T08:03:49.439Z,4.02
2022-12-03T08:06:16.519Z,3.84
2022-12-03T08:08:43.772Z,4.01
2022-12-03T08:11:17.007Z,3.94
2022-12-03T08:13:46.649Z,4.05
2022-12-03T08:16:21.033Z,4.28
2022-12-03T08:18:49.569Z,4.41
2022-12-03T08:21:21.833Z,4.43
2022-12-03T08:23:51.421Z,4.45
2022-12-03T08:26:25.580Z,4.39
2022-12-03T08:28:57.467Z,4.51
2022-12-03T08:31:32.291Z,4.83
2022-12-03T08:34:20.682Z,5.14
2022-12-03T08:36:51.177Z,5.49
2022-12-03T08:39:27.814Z,5.46
2022-12-03T08:42:21.164Z,5.39
2022-12-03T08:44:48.328Z,5.28
2022-12-03T08:47:24.424Z,5.01
2022-12-03T08:50:11.792Z,4.95
2022-12-03T08:52:40.784Z,4.78
2022-12-03T08:55:40.637Z,4.53
2022-12-03T08:58:23.418Z,4.51
2022-12-03T09:01:06.211Z,4.46
2022-12-03T09:03:36.695Z,4.64
2022-12-03T09:06:06.180Z,4.57
2022-12-03T09:08:33.111Z,4.41
2022-12-03T09:11:01.283Z,4.55
2022-12-03T09:13:30.462Z,4.50
2022-12-03T09:15:57.373Z,4.24
2022-12-03T09:18:27.552Z,4.39
2022-12-03T09:20:57.190Z,4.47
2022-12-03T09:23:24.318Z,4.69
2022-12-03T09:25:51.325Z,4.62
2022-12-03T09:28:18.398Z,4.59
2022-12-03T09:30:45.481Z,4.53
2022-12-03T09:33:14.924Z,4.44
2022-12-03T09:35:41.867Z,4.15
2022-12-03T09:38:08.841Z,4.40
2022-12-03T09:40:38.171Z,4.57
2022-12-03T09:43:08.328Z,4.44
2022-12-03T09:45:37.619Z,4.34
2022-12-03T09:48:07.157Z,4.29
2022-12-03T09:50:44.500Z,4.30
2022-12-03T09:53:18.360Z,4.35
2022-12-03T09:55:49.507Z,4.46
2022-12-03T09:58:23.129Z,4.26
2022-12-03T10:00:54.489Z,4.14
2022-12-03T10:03:29.675Z,3.95
2022-12-03T10:05:59.665Z,4.07
2022-12-03T10:08:33.005Z,4.48
2022-12-03T10:11:00.029Z,4.32
2022-12-03T10:13:30.927Z,3.83
2022-12-03T10:16:00.401Z,3.88
2022-12-03T10:18:39.981Z,3.83
2022-12-03T10:21:37.676Z,4.03
2022-12-03T10:24:34.589Z,3.86
2022-12-03T10:27:34.987Z,4.13
2022-12-03T10:30:08.231Z,3.97
2022-12-03T10:32:45.413Z,4.05
2022-12-03T10:35:37.727Z,4.05
2022-12-03T10:38:06.962Z,3.88
2022-12-03T10:40:39.431Z,3.91
2022-12-03T10:43:19.840Z,3.88
2022-12-03T10:46:01.975Z,4.07
2022-12-03T10:48:32.932Z,4.24
2022-12-03T10:51:21.827Z,4.46
2022-12-03T10:53:52.307Z,4.46
2022-12-03T10:56:25.772Z,4.69
2022-12-03T10:58:56.318Z,4.54
2022-12-03T11:01:26.173Z,4.63
2022-12-03T11:04:02.230Z,4.40
2022-12-03T11:06:33.072Z,4.45
2022-12-03T11:09:03.952Z,4.39
2022-12-03T11:11:35.512Z,4.60
2022-12-03T11:14:04.866Z,4.54
2022-12-03T11:16:41.080Z,4.39
2022-12-03T11:19:13.731Z,4.25
2022-12-03T11:22:05.322Z,4.10
2022-12-03T11:24:37.626Z,4.31
2022-12-03T11:27:04.469Z,4.19
2022-12-03T11:29:57.616Z,4.22
2022-12-03T11:32:45.500Z,3.96
2022-12-03T11:35:16.951Z,4.29
2022-12-03T11:37:43.943Z,4.09
2022-12-03T11:40:19.933Z,4.27
2022-12-03T11:42:48.848Z,4.47
2022-12-03T11:45:30.859Z,4.49
2022-12-03T11:48:24.107Z,4.66
2022-12-03T11:50:53.399Z,4.52
2022-12-03T11:53:26.583Z,4.51
2022-12-03T11:56:13.003Z,4.66
2022-12-03T11:58:43.518Z,4.80
2022-12-03T12:01:10.534Z,4.75
2022-12-03T12:03:54.995Z,4.73
2022-12-03T12:06:26.912Z,4.70
2022-12-03T12:09:00.990Z,4.47
2022-12-03T12:11:33.967Z,4.53
2022-12-03T12:14:12.042Z,4.52
2022-12-03T12:16:55.152Z,4.77
2022-12-03T12:19:42.484Z,4.91
2022-12-03T12:22:18.264Z,4.71
2022-12-03T12:24:51.380Z,4.61
2022-12-03T12:27:21.696Z,4.37
2022-12-03T12:29:56.895Z,4.43
2022-12-03T12:33:08.332Z,4.44
2022-12-03T12:35:37.476Z,4.46
2022-12-03T12:38:07.515Z,4.30
2022-12-03T12:40:43.193Z,4.24
2022-12-03T12:43:27.360Z,4.07
2022-12-03T12:45:58.529Z,3.93
2022-12-03T12:48:31.593Z,3.76
2022-12-03T12:51:18.785Z,3.81
2022-12-03T12:53:46.527Z,3.85
2022-12-03T12:56:31.530Z,4.25
2022-12-03T12:59:12.515Z,4.26
2022-12-03T13:01:41.394Z,4.35
2022-12-03T13:04:23.334Z,4.13
2022-12-03T13:06:57.393Z,4.10
2022-12-03T13:09:26.088Z,3.99
2022-12-03T13:12:04.237Z,3.55
2022-12-03T13:14:39.258Z,3.55
2022-12-03T13:17:26.011Z,3.62
2022-12-03T13:20:05.137Z,3.73
2022-12-03T13:22:34.468Z,3.80
2022-12-03T13:25:58.255Z,3.70
2022-12-03T13:28:21.646Z,3.96
2022-12-03T13:30:48.839Z,3.98
2022-12-03T13:33:26.688Z,3.92
2022-12-03T13:35:57.075Z,3.60
2022-12-03T13:38:26.956Z,3.29
2022-12-03T13:41:02.735Z,3.13
2022-12-03T13:43:32.491Z,3.04
2022-12-03T13:46:00.636Z,3.19
2022-12-03T13:48:35.401Z,3.38
2022-12-03T13:51:27.104Z,3.44
2022-12-03T13:53:57.297Z,3.46
2022-12-03T13:56:33.751Z,3.68
2022-12-03T13:59:01.552Z,3.76
2022-12-03T14:01:31.014Z,3.46
2022-12-03T14:03:57.991Z,3.54
2022-12-03T14:06:27.994Z,3.66
2022-12-03T14:08:57.205Z,3.37
2022-12-03T14:11:44.774Z,3.05
2022-12-03T14:14:12.172Z,3.14
2022-12-03T14:16:41.520Z,3.26
2022-12-03T14:19:08.582Z,3.52
2022-12-03T14:21:38.615Z,3.41
2022-12-03T14:24:06.194Z,3.37
2022-12-03T14:26:33.253Z,3.63
2022-12-03T14:29:03.432Z,3.50
2022-12-03T14:31:33.074Z,3.75
2022-12-03T14:34:00.183Z,3.82
2022-12-03T14:36:30.316Z,3.98
2022-12-03T14:38:57.383Z,3.97
2022-12-03T14:41:45.609Z,3.91
2022-12-03T14:44:17.479Z,3.76
2022-12-03T14:46:47.514Z,3.91
2022-12-03T14:49:14.629Z,3.97
2022-12-03T14:51:41.734Z,3.56
2022-12-03T14:54:11.167Z,3.17
2022-12-03T14:56:38.184Z,3.32
2022-12-03T14:59:07.321Z,3.20
2022-12-03T15:01:34.618Z,3.34
2022-12-03T15:04:04.089Z,3.47
2022-12-03T15:06:33.752Z,3.51
2022-12-03T15:09:00.788Z,3.73
2022-12-03T15:11:27.813Z,3.75
2022-12-03T15:13:54.850Z,3.65
2022-12-03T15:16:22.001Z,3.79
2022-12-03T15:18:48.922Z,3.96
2022-12-03T15:21:16.622Z,4.17
2022-12-03T15:23:46.211Z,3.98
2022-12-03T15:26:13.227Z,3.90
2022-12-03T15:28:44.120Z,4.00
2022-12-03T15:31:16.840Z,4.09
2022-12-03T15:33:48.306Z,4.13
2022-12-03T15:36:19.939Z,4.13
2022-12-03T15:38:46.954Z,3.93
2022-12-03T15:41:29.157Z,4.00
2022-12-03T15:44:04.245Z,3.74
2022-12-03T15:46:33.904Z,3.77
2022-12-03T15:49:01.082Z,3.60
2022-12-03T15:51:28.134Z,3.54
2022-12-03T15:53:55.217Z,3.72
2022-12-03T15:56:22.225Z,3.87
2022-12-03T15:58:49.181Z,4.07
2022-12-03T16:01:18.714Z,3.96
2022-12-03T16:03:45.702Z,3.76
2022-12-03T16:06:14.686Z,3.48
2022-12-03T16:08:44.763Z,3.61
2022-12-03T16:11:11.774Z,3.38
2022-12-03T16:13:41.017Z,3.50
2022-12-03T16:16:10.571Z,3.53
2022-12-03T16:18:37.494Z,3.66
2022-12-03T16:21:04.612Z,3.62
2022-12-03T16:23:31.765Z,3.21
2022-12-03T16:26:01.284Z,3.31
2022-12-03T16:28:28.272Z,3.41
2022-12-03T16:30:55.399Z,3.35
2022-12-03T16:33:27.320Z,3.62
2022-12-03T16:35:57.342Z,3.61
2022-12-03T16:38:24.364Z,3.69
2022-12-03T16:40:51.439Z,3.49
2022-12-03T16:43:18.637Z,3.48
2022-12-03T16:45:56.501Z,3.24
2022-12-03T16:48:25.921Z,3.09
2022-12-03T16:50:56.236Z,2.79
2022-12-03T16:53:25.414Z,2.90
2022-12-03T16:55:52.433Z,3.06
2022-12-03T16:58:21.302Z,3.42
2022-12-03T17:00:49.822Z,3.52
2022-12-03T17:03:20.333Z,3.34
2022-12-03T17:05:47.637Z,3.29
2022-12-03T17:08:15.986Z,3.42
2022-12-03T17:10:44.163Z,3.36
2022-12-03T17:13:12.152Z,3.57
2022-12-03T17:15:42.389Z,3.46
2022-12-03T17:18:09.513Z,3.23
2022-12-03T17:20:37.187Z,3.24
2022-12-03T17:23:04.989Z,3.33
2022-12-03T17:25:32.250Z,3.24
2022-12-03T17:27:59.115Z,3.10
2022-12-03T17:30:26.479Z,2.73
2022-12-03T17:32:53.842Z,2.76
2022-12-03T17:35:20.889Z,2.94
2022-12-03T17:37:50.399Z,2.73
2022-12-03T17:40:19.711Z,2.83
2022-12-03T17:42:51.384Z,2.50
2022-12-03T17:45:18.284Z,2.61
2022-12-03T17:47:47.648Z,2.41
2022-12-03T17:50:14.639Z,2.58
2022-12-03T17:52:41.629Z,2.68
2022-12-03T17:55:14.487Z,2.80
2022-12-03T17:57:52.903Z,2.81
2022-12-03T18:00:20.188Z,3.01
2022-12-03T18:02:47.164Z,3.46
2022-12-03T18:05:14.536Z,3.36
2022-12-03T18:07:44.060Z,2.35
2022-12-03T18:10:11.306Z,2.24
2022-12-03T18:12:38.241Z,2.33
2022-12-03T18:15:10.926Z,2.63
2022-12-03T18:17:37.867Z,3.04
2022-12-03T18:20:06.112Z,2.91
2022-12-03T18:22:36.099Z,2.86
2022-12-03T18:25:06.412Z,2.93
2022-12-03T18:27:36.098Z,2.80
2022-12-03T18:30:06.460Z,2.97
2022-12-03T18:32:33.301Z,2.97
2022-12-03T18:35:01.563Z,3.11
2022-12-03T18:37:34.570Z,3.04
2022-12-03T18:40:02.077Z,3.08
2022-12-03T18:42:32.642Z,3.13
2022-12-03T18:44:59.864Z,3.13
2022-12-03T18:47:31.124Z,2.67
2022-12-03T18:49:58.379Z,2.68
2022-12-03T18:52:25.687Z,2.77
2022-12-03T18:54:53.112Z,2.97
2022-12-03T18:57:20.194Z,3.04
2022-12-03T18:59:47.196Z,2.98
2022-12-03T19:05:09.053Z,2.68
2022-12-03T19:07:36.209Z,2.89
2022-12-03T19:10:04.310Z,2.71
2022-12-03T19:12:34.509Z,2.55
2022-12-03T19:15:05.379Z,2.32
2022-12-03T19:17:32.834Z,2.35
2022-12-03T19:20:01.876Z,2.24
2022-12-03T19:22:28.964Z,2.06
2022-12-03T19:24:55.970Z,2.42
2022-12-03T19:27:25.990Z,2.44
2022-12-03T19:29:53.290Z,2.30
2022-12-03T19:32:25.600Z,2.20
2022-12-03T19:34:55.037Z,2.05
2022-12-03T19:37:21.982Z,1.94
2022-12-03T19:39:53.783Z,2.05
2022-12-03T19:42:21.250Z,1.88
2022-12-03T19:44:48.251Z,1.73
2022-12-03T19:47:15.274Z,1.73
2022-12-03T19:49:42.413Z,1.87
2022-12-03T19:52:11.990Z,2.14
2022-12-03T19:54:41.213Z,2.03
2022-12-03T19:57:13.659Z,2.25
2022-12-03T19:59:43.072Z,2.00
2022-12-03T20:02:15.221Z,2.11
2022-12-03T20:04:42.249Z,1.85
2022-12-03T20:07:09.280Z,1.85
2022-12-03T20:09:36.304Z,1.85
2022-12-03T20:12:06.667Z,2.19
2022-12-03T20:14:38.796Z,1.93
2022-12-03T20:17:05.975Z,1.79
2022-12-03T20:19:33.015Z,1.96
2022-12-03T20:22:02.883Z,1.81
2022-12-03T20:24:32.719Z,1.60
2022-12-03T20:26:59.728Z,1.63
2022-12-03T20:29:26.755Z,1.73
2022-12-03T20:31:56.411Z,1.84
2022-12-03T20:34:23.385Z,1.84
2022-12-03T20:36:50.392Z,2.26
2022-12-03T20:39:17.443Z,2.18
2022-12-03T20:41:44.464Z,2.28
2022-12-03T20:44:14.535Z,1.96
2022-12-03T20:46:41.556Z,2.16
2022-12-03T20:49:08.627Z,2.40
2022-12-03T20:51:39.157Z,2.59
2022-12-03T20:54:11.710Z,2.62
2022-12-03T20:56:42.058Z,2.50
2022-12-03T20:59:14.296Z,2.68
2022-12-03T21:01:43.276Z,2.90
2022-12-03T21:04:14.559Z,3.12
2022-12-03T21:06:44.185Z,3.00
2022-12-03T21:09:14.045Z,2.99
2022-12-03T21:11:42.501Z,3.05
2022-12-03T21:14:11.156Z,3.05
2022-12-03T21:17:06.609Z,3.14
2022-12-03T21:19:27.030Z,3.27
2022-12-03T21:21:53.997Z,3.36
2022-12-03T21:24:21.134Z,3.51
2022-12-03T21:26:50.207Z,3.56
2022-12-03T21:29:18.190Z,3.39
2022-12-03T21:31:45.198Z,3.40
2022-12-03T21:34:12.408Z,3.26
2022-12-03T21:36:40.137Z,3.24
2022-12-03T21:39:09.747Z,3.51
2022-12-03T21:41:37.503Z,3.51
2022-12-03T21:44:04.778Z,3.36
2022-12-03T21:47:11.763Z,3.23
2022-12-03T21:49:22.608Z,3.26
2022-12-03T21:51:49.784Z,3.34
2022-12-03T21:54:16.745Z,3.22
2022-12-03T21:56:48.321Z,3.16
2022-12-03T21:59:15.398Z,3.10
2022-12-03T22:01:46.907Z,2.92
2022-12-03T22:04:14.410Z,3.01
2022-12-03T22:06:41.590Z,3.24
2022-12-03T22:09:10.419Z,3.14
2022-12-03T22:11:39.847Z,2.94
2022-12-03T22:14:12.303Z,3.09
2022-12-03T22:16:42.120Z,3.12
2022-12-03T22:19:10.678Z,3.16
2022-12-03T22:21:37.827Z,3.44
2022-12-03T22:24:13.617Z,3.50
2022-12-03T22:26:43.253Z,3.33
2022-12-03T22:29:13.613Z,2.97
2022-12-03T22:31:40.586Z,3.16
2022-12-03T22:34:10.389Z,3.44
2022-12-03T22:36:38.088Z,3.36
2022-12-03T22:39:07.432Z,3.18
2022-12-03T22:41:34.500Z,2.96
2022-12-03T22:44:03.942Z,3.03
2022-12-03T22:46:33.677Z,2.97
2022-12-03T22:49:07.061Z,3.07
2022-12-03T22:51:37.168Z,3.21
2022-12-03T22:54:05.605Z,3.24
2022-12-03T22:56:33.007Z,3.22
2022-12-03T22:59:01.360Z,3.24
2022-12-03T23:01:38.514Z,2.86
2022-12-03T23:04:08.737Z,3.08
2022-12-03T23:06:37.107Z,3.31
2022-12-03T23:09:06.457Z,3.43
2022-12-03T23:11:34.117Z,3.55
2022-12-03T23:14:06.809Z,3.65
2022-12-03T23:16:34.271Z,3.66
2022-12-03T23:19:03.421Z,3.49
2022-12-03T23:21:36.660Z,3.38
2022-12-03T23:24:06.661Z,3.35
2022-12-03T23:26:40.786Z,3.31
2022-12-03T23:29:08.574Z,3.15
2022-12-03T23:31:36.328Z,3.21
2022-12-03T23:34:05.946Z,3.12
2022-12-03T23:36:37.811Z,3.08
2022-12-03T23:39:05.101Z,3.10
2022-12-03T23:41:32.243Z,2.80
2022-12-03T23:43:59.341Z,2.90
2022-12-03T23:46:28.378Z,2.88
2022-12-03T23:48:58.428Z,2.76
2022-12-03T23:51:26.641Z,2.67
2022-12-03T23:53:55.672Z,2.89
2022-12-03T23:56:29.631Z,3.03
2022-12-03T23:58:58.217Z,3.10
